Velkommen til min vejrside, der er mangler og fejl som bliver opdateret. Kom snart tilbage og få vejret - Welcome to our website - Welkom op onze vernieuwde website
Bienvenue sur notre site web - Willkommen auf unserer Website - Check our progress frequently. Prüfen Sie unsere Fortschritte regelmäßig. Consultez notre progression fréquemment. Komt u straks nog eens terug


vejr3>nv more information Vejr3>NV


3 timers nedbørs radar more information rain snow radar


besøg nogle andre vejrsider:

Template dokumentation
og downloads

And another site


weather underground historie, tekst side

dagens sammenfatning af februar 09, 2018 enheder:  både    engelsk   metrisk
« forgående dag
næste dag »
dagens ugenligt månedlig årligt tilpasset
  høj: lav: gennemsnit:
temperatur: TemperatureC °F /  -17.8 °C -4.3 °F /  -20.2 °C -2.1 °F /  -18.9 °C
dugpunkt: DewpointC °F /  -17.8 °C -6.2 °F /  -21.2 °C -4.4 °F /  -20.2 °C
fugtighed: Humidity % 72 % 84 %
vindhastighed: WindSpeedKMH mph /  0 km/h - 13.2 mph /  21.2 km/h
vindstød: WindSpeedGustKMH mph /  0 km/h - -
vind:- - ESE
lufttryk: PressurehPa in /  0 hPa 1014.4 in /  34347.6 hPa -
nedbør: 0.0 in /  0 mm    
Historical Graphs
 
 
tabeldata for februar 09, 2018
tid temperatur dugpunkt lufttryk vind vindhastighed vindstød fugtighed regn (timme)
TemperatureC °F /  -17.8 °C DewpointC °F /  -17.8 °C PressurehPa in /  0 hPa Calm     Humidity % HourlyPrecipMM in /  0 mm
00:04 -2.4 °F /  -19.1 °C -3.8 °F /  -19.9 °C 1017.8 in /  34462.7 hPa SSE 11.3 mph /  18.2 km/h 19.3 mph /  31.1 km/h 90 % 0.0 in /  0 mm
00:09 -2.4 °F /  -19.1 °C -3.8 °F /  -19.9 °C 1017.8 in /  34462.7 hPa SE 19.3 mph /  31.1 km/h 19.3 mph /  31.1 km/h 90 % 0.0 in /  0 mm
00:14 -2.4 °F /  -19.1 °C -3.8 °F /  -19.9 °C 1017.8 in /  34462.7 hPa SE 11.3 mph /  18.2 km/h 16.1 mph /  25.9 km/h 90 % 0.0 in /  0 mm
00:19 -2.4 °F /  -19.1 °C -3.8 °F /  -19.9 °C 1017.8 in /  34462.7 hPa SE 11.3 mph /  18.2 km/h 16.1 mph /  25.9 km/h 90 % 0.0 in /  0 mm
00:24 -2.4 °F /  -19.1 °C -3.8 °F /  -19.9 °C 1017.8 in /  34462.7 hPa SE 11.3 mph /  18.2 km/h 19.3 mph /  31.1 km/h 90 % 0.0 in /  0 mm
00:29 -2.4 °F /  -19.1 °C -3.8 °F /  -19.9 °C 1017.8 in /  34462.7 hPa SE 9.7 mph /  15.6 km/h 19.3 mph /  31.1 km/h 90 % 0.0 in /  0 mm
00:34 -2.4 °F /  -19.1 °C -3.8 °F /  -19.9 °C 1017.8 in /  34462.7 hPa SSE 11.3 mph /  18.2 km/h 20.9 mph /  33.6 km/h 90 % 0.0 in /  0 mm
00:39 -2.4 °F /  -19.1 °C -3.8 °F /  -19.9 °C 1017.8 in /  34462.7 hPa SSE 11.3 mph /  18.2 km/h 19.3 mph /  31.1 km/h 90 % 0.0 in /  0 mm
00:44 -2.4 °F /  -19.1 °C -3.8 °F /  -19.9 °C 1017.8 in /  34462.7 hPa SSE 12.9 mph /  20.8 km/h 19.3 mph /  31.1 km/h 90 % 0.0 in /  0 mm
00:49 -2.4 °F /  -19.1 °C -3.8 °F /  -19.9 °C 1017.8 in /  34462.7 hPa SE 12.9 mph /  20.8 km/h 22.5 mph /  36.2 km/h 90 % 0.0 in /  0 mm
00:54 -2.4 °F /  -19.1 °C -3.8 °F /  -19.9 °C 1017.8 in /  34462.7 hPa SE 14.5 mph /  23.3 km/h 19.3 mph /  31.1 km/h 90 % 0.0 in /  0 mm
00:59 -2.4 °F /  -19.1 °C -3.8 °F /  -19.9 °C 1017.8 in /  34462.7 hPa SE 14.5 mph /  23.3 km/h 19.3 mph /  31.1 km/h 90 % 0.0 in /  0 mm
01:04 -2.4 °F /  -19.1 °C -3.8 °F /  -19.9 °C 1017.8 in /  34462.7 hPa SE 11.3 mph /  18.2 km/h 14.5 mph /  23.3 km/h 90 % 0.0 in /  0 mm
01:09 -2.5 °F /  -19.2 °C -3.9 °F /  -19.9 °C 1017.8 in /  34462.7 hPa SE 9.7 mph /  15.6 km/h 14.5 mph /  23.3 km/h 90 % 0.0 in /  0 mm
01:14 -2.6 °F /  -19.2 °C -3.9 °F /  -19.9 °C 1017.8 in /  34462.7 hPa ESE 11.3 mph /  18.2 km/h 14.5 mph /  23.3 km/h 90 % 0.0 in /  0 mm
01:19 -2.7 °F /  -19.3 °C -4.1 °F /  -20.1 °C 1017.8 in /  34462.7 hPa SE 11.3 mph /  18.2 km/h 14.5 mph /  23.3 km/h 90 % 0.0 in /  0 mm
01:24 -2.7 °F /  -19.3 °C -4.1 °F /  -20.1 °C 1017.8 in /  34462.7 hPa SE 9.7 mph /  15.6 km/h 14.5 mph /  23.3 km/h 90 % 0.0 in /  0 mm
01:29 -2.7 °F /  -19.3 °C -4.1 °F /  -20.1 °C 1017.8 in /  34462.7 hPa ESE 11.3 mph /  18.2 km/h 12.9 mph /  20.8 km/h 90 % 0.0 in /  0 mm
01:34 -2.8 °F /  -19.3 °C -4.1 °F /  -20.1 °C 1017.8 in /  34462.7 hPa SE 11.3 mph /  18.2 km/h 19.3 mph /  31.1 km/h 91 % 0.0 in /  0 mm
01:39 -2.8 °F /  -19.3 °C -4.1 °F /  -20.1 °C 1017.8 in /  34462.7 hPa SE 11.3 mph /  18.2 km/h 17.7 mph /  28.5 km/h 91 % 0.0 in /  0 mm
01:44 -2.8 °F /  -19.3 °C -4.1 °F /  -20.1 °C 1017.8 in /  34462.7 hPa SE 11.3 mph /  18.2 km/h 19.3 mph /  31.1 km/h 91 % 0.0 in /  0 mm
01:49 -2.8 °F /  -19.3 °C -4.1 °F /  -20.1 °C 1017.8 in /  34462.7 hPa SE 11.3 mph /  18.2 km/h 16.1 mph /  25.9 km/h 91 % 0.0 in /  0 mm
01:54 -2.8 °F /  -19.3 °C -4.1 °F /  -20.1 °C 1017.8 in /  34462.7 hPa SE 11.3 mph /  18.2 km/h 16.1 mph /  25.9 km/h 91 % 0.0 in /  0 mm
01:59 -2.8 °F /  -19.3 °C -4.1 °F /  -20.1 °C 1017.5 in /  34452.6 hPa SE 12.9 mph /  20.8 km/h 16.1 mph /  25.9 km/h 91 % 0.0 in /  0 mm
02:04 -2.8 °F /  -19.3 °C -4.1 °F /  -20.1 °C 1017.5 in /  34452.6 hPa SE 11.3 mph /  18.2 km/h 17.7 mph /  28.5 km/h 91 % 0.0 in /  0 mm
02:09 -2.8 °F /  -19.3 °C -4.1 °F /  -20.1 °C 1017.5 in /  34452.6 hPa SE 16.7 mph /  26.9 km/h 16.7 mph /  26.9 km/h 91 % 0.0 in /  0 mm
02:14 -2.8 °F /  -19.3 °C -4.2 °F /  -20.1 °C 1017.5 in /  34452.6 hPa SE 18.5 mph /  29.8 km/h 18.5 mph /  29.8 km/h 90 % 0.0 in /  0 mm
02:19 -2.8 °F /  -19.3 °C -4.2 °F /  -20.1 °C 1017.5 in /  34452.6 hPa East 18.5 mph /  29.8 km/h 18.5 mph /  29.8 km/h 90 % 0.0 in /  0 mm
02:24 -2.8 °F /  -19.3 °C -4.1 °F /  -20.1 °C 1017.5 in /  34452.6 hPa SE 16.7 mph /  26.9 km/h 16.7 mph /  26.9 km/h 91 % 0.0 in /  0 mm
02:29 -2.8 °F /  -19.3 °C -4.2 °F /  -20.1 °C 1017.5 in /  34452.6 hPa SE 18.5 mph /  29.8 km/h 18.5 mph /  29.8 km/h 90 % 0.0 in /  0 mm
02:34 -2.9 °F /  -19.4 °C -4.3 °F /  -20.2 °C 1017.5 in /  34452.6 hPa SE 18.5 mph /  29.8 km/h 18.5 mph /  29.8 km/h 90 % 0.0 in /  0 mm
02:39 -2.9 °F /  -19.4 °C -4.3 °F /  -20.2 °C 1017.5 in /  34452.6 hPa SE 18.5 mph /  29.8 km/h 18.5 mph /  29.8 km/h 90 % 0.0 in /  0 mm
02:44 -2.9 °F /  -19.4 °C -4.3 °F /  -20.2 °C 1017.2 in /  34442.4 hPa SE 18.5 mph /  29.8 km/h 18.5 mph /  29.8 km/h 90 % 0.0 in /  0 mm
02:49 -2.9 °F /  -19.4 °C -4.3 °F /  -20.2 °C 1017.2 in /  34442.4 hPa ESE 14.8 mph /  23.8 km/h 14.8 mph /  23.8 km/h 90 % 0.0 in /  0 mm
02:54 -2.9 °F /  -19.4 °C -4.3 °F /  -20.2 °C 1017.2 in /  34442.4 hPa SE 16.7 mph /  26.9 km/h 16.7 mph /  26.9 km/h 90 % 0.0 in /  0 mm
02:59 -2.9 °F /  -19.4 °C -4.3 °F /  -20.2 °C 1017.2 in /  34442.4 hPa ESE 18.5 mph /  29.8 km/h 18.5 mph /  29.8 km/h 90 % 0.0 in /  0 mm
03:04 -3.0 °F /  -19.4 °C -4.4 °F /  -20.2 °C 1017.2 in /  34442.4 hPa SE 18.5 mph /  29.8 km/h 18.5 mph /  29.8 km/h 90 % 0.0 in /  0 mm
03:09 -3.0 °F /  -19.4 °C -4.6 °F /  -20.3 °C 1016.8 in /  34428.8 hPa East 18.5 mph /  29.8 km/h 18.5 mph /  29.8 km/h 89 % 0.0 in /  0 mm
03:14 -3.1 °F /  -19.5 °C -4.6 °F /  -20.3 °C 1016.8 in /  34428.8 hPa SE 16.7 mph /  26.9 km/h 16.7 mph /  26.9 km/h 89 % 0.0 in /  0 mm
03:19 -3.1 °F /  -19.5 °C -4.6 °F /  -20.3 °C 1016.8 in /  34428.8 hPa SE 18.5 mph /  29.8 km/h 18.5 mph /  29.8 km/h 89 % 0.0 in /  0 mm
03:24 -3.1 °F /  -19.5 °C -4.6 °F /  -20.3 °C 1016.8 in /  34428.8 hPa SE 18.5 mph /  29.8 km/h 18.5 mph /  29.8 km/h 89 % 0.0 in /  0 mm
03:29 -3.1 °F /  -19.5 °C -4.6 °F /  -20.3 °C 1017.2 in /  34442.4 hPa SE 18.5 mph /  29.8 km/h 18.5 mph /  29.8 km/h 89 % 0.0 in /  0 mm
03:34 -3.1 °F /  -19.5 °C -4.6 °F /  -20.3 °C 1016.8 in /  34428.8 hPa SE 20.4 mph /  32.8 km/h 20.4 mph /  32.8 km/h 89 % 0.0 in /  0 mm
03:39 -3.1 °F /  -19.5 °C -4.6 °F /  -20.3 °C 1016.8 in /  34428.8 hPa SE 12.9 mph /  20.8 km/h 20.9 mph /  33.6 km/h 89 % 0.0 in /  0 mm
03:44 -3.1 °F /  -19.5 °C -4.8 °F /  -20.4 °C 1016.8 in /  34428.8 hPa SE 11.3 mph /  18.2 km/h 16.1 mph /  25.9 km/h 88 % 0.0 in /  0 mm
03:49 -3.1 °F /  -19.5 °C -4.8 °F /  -20.4 °C 1016.8 in /  34428.8 hPa SSE 20.4 mph /  32.8 km/h 20.4 mph /  32.8 km/h 88 % 0.0 in /  0 mm
03:54 -3.1 °F /  -19.5 °C -4.8 °F /  -20.4 °C 1016.8 in /  34428.8 hPa SE 12.9 mph /  20.8 km/h 14.5 mph /  23.3 km/h 88 % 0.0 in /  0 mm
03:59 -3.1 °F /  -19.5 °C -4.8 °F /  -20.4 °C 1016.8 in /  34428.8 hPa SE 19.3 mph /  31.1 km/h 19.3 mph /  31.1 km/h 88 % 0.0 in /  0 mm
04:04 -3.1 °F /  -19.5 °C -4.8 °F /  -20.4 °C 1016.8 in /  34428.8 hPa SSE 20.4 mph /  32.8 km/h 20.4 mph /  32.8 km/h 88 % 0.0 in /  0 mm
04:09 -3.0 °F /  -19.4 °C -4.8 °F /  -20.4 °C 1016.8 in /  34428.8 hPa SSE 20.9 mph /  33.6 km/h 20.9 mph /  33.6 km/h 87 % 0.0 in /  0 mm
04:14 -2.9 °F /  -19.4 °C -4.8 °F /  -20.4 °C 1016.8 in /  34428.8 hPa ESE 16.7 mph /  26.9 km/h 16.7 mph /  26.9 km/h 87 % 0.0 in /  0 mm
04:19 -2.9 °F /  -19.4 °C -4.9 °F /  -20.5 °C 1016.8 in /  34428.8 hPa SSE 20.4 mph /  32.8 km/h 20.4 mph /  32.8 km/h 86 % 0.0 in /  0 mm
04:24 -2.9 °F /  -19.4 °C -4.9 °F /  -20.5 °C 1016.8 in /  34428.8 hPa SE 11.3 mph /  18.2 km/h 16.1 mph /  25.9 km/h 86 % 0.0 in /  0 mm
04:29 -2.9 °F /  -19.4 °C -4.9 °F /  -20.5 °C 1016.8 in /  34428.8 hPa SE 14.5 mph /  23.3 km/h 20.9 mph /  33.6 km/h 86 % 0.0 in /  0 mm
04:34 -2.9 °F /  -19.4 °C -4.9 °F /  -20.5 °C 1016.8 in /  34428.8 hPa SE 12.9 mph /  20.8 km/h 19.3 mph /  31.1 km/h 86 % 0.0 in /  0 mm
04:39 -3.0 °F /  -19.4 °C -4.8 °F /  -20.4 °C 1016.8 in /  34428.8 hPa SE 16.7 mph /  26.9 km/h 16.7 mph /  26.9 km/h 87 % 0.0 in /  0 mm
04:44 -3.1 °F /  -19.5 °C -4.9 °F /  -20.5 °C 1016.8 in /  34428.8 hPa SE 16.7 mph /  26.9 km/h 16.7 mph /  26.9 km/h 87 % 0.0 in /  0 mm
04:49 -3.1 °F /  -19.5 °C -4.9 °F /  -20.5 °C 1016.8 in /  34428.8 hPa ESE 16.7 mph /  26.9 km/h 16.7 mph /  26.9 km/h 87 % 0.0 in /  0 mm
04:54 -3.2 °F /  -19.6 °C -5.0 °F /  -20.6 °C 1016.8 in /  34428.8 hPa SE 12.9 mph /  20.8 km/h 19.3 mph /  31.1 km/h 87 % 0.0 in /  0 mm
04:59 -3.2 °F /  -19.6 °C -5.1 °F /  -20.6 °C 1016.8 in /  34428.8 hPa SE 18.5 mph /  29.8 km/h 18.5 mph /  29.8 km/h 87 % 0.0 in /  0 mm
05:04 -3.3 °F /  -19.6 °C -5.1 °F /  -20.6 °C 1016.5 in /  34418.7 hPa SE 11.3 mph /  18.2 km/h 16.1 mph /  25.9 km/h 87 % 0.0 in /  0 mm
05:09 -3.3 °F /  -19.6 °C -5.2 °F /  -20.7 °C 1016.5 in /  34418.7 hPa SE 16.7 mph /  26.9 km/h 16.7 mph /  26.9 km/h 87 % 0.0 in /  0 mm
05:14 -3.3 °F /  -19.6 °C -5.2 °F /  -20.7 °C 1016.5 in /  34418.7 hPa SE 9.7 mph /  15.6 km/h 16.1 mph /  25.9 km/h 87 % 0.0 in /  0 mm
05:19 -3.4 °F /  -19.7 °C -5.2 °F /  -20.7 °C 1016.5 in /  34418.7 hPa SE 16.7 mph /  26.9 km/h 16.7 mph /  26.9 km/h 87 % 0.0 in /  0 mm
05:24 -3.4 °F /  -19.7 °C -5.3 °F /  -20.7 °C 1016.5 in /  34418.7 hPa SE 11.3 mph /  18.2 km/h 16.1 mph /  25.9 km/h 87 % 0.0 in /  0 mm
05:29 -3.4 °F /  -19.7 °C -5.3 °F /  -20.7 °C 1016.1 in /  34405.1 hPa ESE 14.8 mph /  23.8 km/h 14.8 mph /  23.8 km/h 87 % 0.0 in /  0 mm
05:34 -3.5 °F /  -19.7 °C -5.3 °F /  -20.7 °C 1016.5 in /  34418.7 hPa SE 11.3 mph /  18.2 km/h 19.3 mph /  31.1 km/h 87 % 0.0 in /  0 mm
05:39 -3.5 °F /  -19.7 °C -5.2 °F /  -20.7 °C 1016.1 in /  34405.1 hPa SE 9.7 mph /  15.6 km/h 9.7 mph /  15.6 km/h 88 % 0.0 in /  0 mm
05:44 -3.6 °F /  -19.8 °C -5.3 °F /  -20.7 °C 1016.1 in /  34405.1 hPa SE 9.7 mph /  15.6 km/h 14.5 mph /  23.3 km/h 88 % 0.0 in /  0 mm
05:49 -3.6 °F /  -19.8 °C -5.3 °F /  -20.7 °C 1016.1 in /  34405.1 hPa SSE 13.0 mph /  20.9 km/h 13.0 mph /  20.9 km/h 88 % 0.0 in /  0 mm
05:54 -3.7 °F /  -19.8 °C -5.3 °F /  -20.7 °C 1016.1 in /  34405.1 hPa SE 9.7 mph /  15.6 km/h 14.5 mph /  23.3 km/h 88 % 0.0 in /  0 mm
05:59 -3.7 °F /  -19.8 °C -5.4 °F /  -20.8 °C 1016.1 in /  34405.1 hPa SE 9.7 mph /  15.6 km/h 14.5 mph /  23.3 km/h 88 % 0.0 in /  0 mm
06:04 -3.7 °F /  -19.8 °C -5.4 °F /  -20.8 °C 1016.1 in /  34405.1 hPa SE 8.0 mph /  12.9 km/h 8.0 mph /  12.9 km/h 88 % 0.0 in /  0 mm
06:09 -3.8 °F /  -19.9 °C -5.5 °F /  -20.8 °C 1016.1 in /  34405.1 hPa SE 11.1 mph /  17.9 km/h 11.1 mph /  17.9 km/h 88 % 0.0 in /  0 mm
06:14 -3.8 °F /  -19.9 °C -5.5 °F /  -20.8 °C 1016.1 in /  34405.1 hPa ESE 14.5 mph /  23.3 km/h 14.5 mph /  23.3 km/h 88 % 0.0 in /  0 mm
06:19 -3.8 °F /  -19.9 °C -5.3 °F /  -20.7 °C 1016.1 in /  34405.1 hPa ESE 9.7 mph /  15.6 km/h 11.3 mph /  18.2 km/h 89 % 0.0 in /  0 mm
06:24 -3.8 °F /  -19.9 °C -5.4 °F /  -20.8 °C 1016.1 in /  34405.1 hPa ESE 9.7 mph /  15.6 km/h 12.9 mph /  20.8 km/h 89 % 0.0 in /  0 mm
06:29 -3.8 °F /  -19.9 °C -5.4 °F /  -20.8 °C 1016.1 in /  34405.1 hPa ESE 9.7 mph /  15.6 km/h 9.7 mph /  15.6 km/h 89 % 0.0 in /  0 mm
06:34 -3.9 °F /  -19.9 °C -5.4 °F /  -20.8 °C 1016.1 in /  34405.1 hPa ESE 9.7 mph /  15.6 km/h 11.3 mph /  18.2 km/h 89 % 0.0 in /  0 mm
06:39 -3.9 °F /  -19.9 °C -5.5 °F /  -20.8 °C 1016.1 in /  34405.1 hPa ESE 9.7 mph /  15.6 km/h 9.7 mph /  15.6 km/h 89 % 0.0 in /  0 mm
06:44 -4.0 °F /  -20 °C -5.6 °F /  -20.9 °C 1015.8 in /  34395 hPa ESE 9.7 mph /  15.6 km/h 9.7 mph /  15.6 km/h 89 % 0.0 in /  0 mm
06:49 -4.0 °F /  -20 °C -5.6 °F /  -20.9 °C 1015.8 in /  34395 hPa ESE 8.0 mph /  12.9 km/h 14.5 mph /  23.3 km/h 89 % 0.0 in /  0 mm
06:54 -4.1 °F /  -20.1 °C -5.6 °F /  -20.9 °C 1015.8 in /  34395 hPa SE 9.7 mph /  15.6 km/h 9.7 mph /  15.6 km/h 89 % 0.0 in /  0 mm
06:59 -4.1 °F /  -20.1 °C -5.8 °F /  -21 °C 1015.8 in /  34395 hPa ESE 9.7 mph /  15.6 km/h 9.7 mph /  15.6 km/h 88 % 0.0 in /  0 mm
07:04 -4.1 °F /  -20.1 °C -5.8 °F /  -21 °C 1015.8 in /  34395 hPa ESE 8.0 mph /  12.9 km/h 9.7 mph /  15.6 km/h 88 % 0.0 in /  0 mm
07:09 -4.2 °F /  -20.1 °C -5.8 °F /  -21 °C 1015.8 in /  34395 hPa SE 14.8 mph /  23.8 km/h 14.8 mph /  23.8 km/h 88 % 0.0 in /  0 mm
07:14 -4.2 °F /  -20.1 °C -5.8 °F /  -21 °C 1015.8 in /  34395 hPa ESE 9.7 mph /  15.6 km/h 14.5 mph /  23.3 km/h 88 % 0.0 in /  0 mm
07:19 -4.2 °F /  -20.1 °C -5.8 °F /  -21 °C 1015.8 in /  34395 hPa ESE 9.7 mph /  15.6 km/h 11.3 mph /  18.2 km/h 88 % 0.0 in /  0 mm
07:24 -4.2 °F /  -20.1 °C -5.8 °F /  -21 °C 1015.8 in /  34395 hPa ESE 9.7 mph /  15.6 km/h 11.3 mph /  18.2 km/h 88 % 0.0 in /  0 mm
07:29 -4.2 °F /  -20.1 °C -5.9 °F /  -21.1 °C 1015.8 in /  34395 hPa ESE 8.0 mph /  12.9 km/h 11.3 mph /  18.2 km/h 88 % 0.0 in /  0 mm
07:34 -4.2 °F /  -20.1 °C -5.9 °F /  -21.1 °C 1015.8 in /  34395 hPa ESE 9.7 mph /  15.6 km/h 11.3 mph /  18.2 km/h 88 % 0.0 in /  0 mm
07:39 -4.2 °F /  -20.1 °C -5.9 °F /  -21.1 °C 1015.8 in /  34395 hPa ESE 8.0 mph /  12.9 km/h 9.7 mph /  15.6 km/h 88 % 0.0 in /  0 mm
07:44 -4.3 °F /  -20.2 °C -5.9 °F /  -21.1 °C 1015.8 in /  34395 hPa ESE 8.0 mph /  12.9 km/h 9.7 mph /  15.6 km/h 88 % 0.0 in /  0 mm
07:49 -4.3 °F /  -20.2 °C -6.0 °F /  -21.1 °C 1015.8 in /  34395 hPa ESE 8.0 mph /  12.9 km/h 14.5 mph /  23.3 km/h 88 % 0.0 in /  0 mm
07:54 -4.3 °F /  -20.2 °C -6.0 °F /  -21.1 °C 1015.8 in /  34395 hPa SE 8.0 mph /  12.9 km/h 11.3 mph /  18.2 km/h 88 % 0.0 in /  0 mm
07:59 -4.3 °F /  -20.2 °C -6.0 °F /  -21.1 °C 1015.8 in /  34395 hPa SE 4.8 mph /  7.7 km/h 8.0 mph /  12.9 km/h 88 % 0.0 in /  0 mm
08:04 -4.3 °F /  -20.2 °C -6.2 °F /  -21.2 °C 1016.1 in /  34405.1 hPa ESE 8.0 mph /  12.9 km/h 11.3 mph /  18.2 km/h 87 % 0.0 in /  0 mm
08:09 -4.3 °F /  -20.2 °C -6.2 °F /  -21.2 °C 1016.1 in /  34405.1 hPa SE 8.0 mph /  12.9 km/h 16.1 mph /  25.9 km/h 87 % 0.0 in /  0 mm
08:14 -4.3 °F /  -20.2 °C -6.2 °F /  -21.2 °C 1016.1 in /  34405.1 hPa SE 8.0 mph /  12.9 km/h 9.7 mph /  15.6 km/h 87 % 0.0 in /  0 mm
08:19 -4.3 °F /  -20.2 °C -6.2 °F /  -21.2 °C 1015.8 in /  34395 hPa SE 8.0 mph /  12.9 km/h 11.3 mph /  18.2 km/h 87 % 0.0 in /  0 mm
08:24 -4.3 °F /  -20.2 °C -6.2 °F /  -21.2 °C 1015.8 in /  34395 hPa SE 8.0 mph /  12.9 km/h 11.3 mph /  18.2 km/h 87 % 0.0 in /  0 mm
08:29 -4.3 °F /  -20.2 °C -5.9 °F /  -21.1 °C 1015.8 in /  34395 hPa SE 9.7 mph /  15.6 km/h 16.1 mph /  25.9 km/h 88 % 0.0 in /  0 mm
08:34 -4.2 °F /  -20.1 °C -6.1 °F /  -21.2 °C 1015.8 in /  34395 hPa SE 9.7 mph /  15.6 km/h 19.3 mph /  31.1 km/h 87 % 0.0 in /  0 mm
08:39 -4.1 °F /  -20.1 °C -5.9 °F /  -21.1 °C 1015.8 in /  34395 hPa ESE 9.7 mph /  15.6 km/h 14.5 mph /  23.3 km/h 87 % 0.0 in /  0 mm
08:44 -4.0 °F /  -20 °C -5.8 °F /  -21 °C 1015.8 in /  34395 hPa ESE 11.3 mph /  18.2 km/h 16.1 mph /  25.9 km/h 87 % 0.0 in /  0 mm
08:49 -3.9 °F /  -19.9 °C -5.7 °F /  -20.9 °C 1015.8 in /  34395 hPa ESE 9.7 mph /  15.6 km/h 14.5 mph /  23.3 km/h 87 % 0.0 in /  0 mm
08:54 -3.8 °F /  -19.9 °C -5.6 °F /  -20.9 °C 1015.8 in /  34395 hPa ESE 9.7 mph /  15.6 km/h 16.1 mph /  25.9 km/h 87 % 0.0 in /  0 mm
08:59 -3.7 °F /  -19.8 °C -5.6 °F /  -20.9 °C 1015.8 in /  34395 hPa ESE 17.7 mph /  28.5 km/h 17.7 mph /  28.5 km/h 87 % 0.0 in /  0 mm
09:04 -3.6 °F /  -19.8 °C -5.4 °F /  -20.8 °C 1015.8 in /  34395 hPa ESE 18.5 mph /  29.8 km/h 18.5 mph /  29.8 km/h 87 % 0.0 in /  0 mm
09:09 -3.4 °F /  -19.7 °C -5.3 °F /  -20.7 °C 1015.8 in /  34395 hPa SSE 16.7 mph /  26.9 km/h 16.7 mph /  26.9 km/h 87 % 0.0 in /  0 mm
09:14 -3.3 °F /  -19.6 °C -5.2 °F /  -20.7 °C 1015.8 in /  34395 hPa ESE 18.5 mph /  29.8 km/h 18.5 mph /  29.8 km/h 87 % 0.0 in /  0 mm
09:19 -3.2 °F /  -19.6 °C -5.2 °F /  -20.7 °C 1015.8 in /  34395 hPa ESE 20.4 mph /  32.8 km/h 20.4 mph /  32.8 km/h 86 % 0.0 in /  0 mm
09:24 -3.1 °F /  -19.5 °C -5.1 °F /  -20.6 °C 1015.8 in /  34395 hPa SE 19.3 mph /  31.1 km/h 19.3 mph /  31.1 km/h 86 % 0.0 in /  0 mm
09:29 -3.0 °F /  -19.4 °C -5.0 °F /  -20.6 °C 1015.8 in /  34395 hPa SE 16.7 mph /  26.9 km/h 16.7 mph /  26.9 km/h 86 % 0.0 in /  0 mm
09:34 -2.9 °F /  -19.4 °C -5.1 °F /  -20.6 °C 1015.8 in /  34395 hPa ESE 14.8 mph /  23.8 km/h 14.8 mph /  23.8 km/h 85 % 0.0 in /  0 mm
09:39 -2.8 °F /  -19.3 °C -4.9 °F /  -20.5 °C 1015.8 in /  34395 hPa East 18.5 mph /  29.8 km/h 18.5 mph /  29.8 km/h 85 % 0.0 in /  0 mm
09:44 -2.7 °F /  -19.3 °C -5.0 °F /  -20.6 °C 1015.8 in /  34395 hPa SSE 16.7 mph /  26.9 km/h 16.7 mph /  26.9 km/h 84 % 0.0 in /  0 mm
09:49 -2.5 °F /  -19.2 °C -5.0 °F /  -20.6 °C 1015.8 in /  34395 hPa ESE 22.5 mph /  36.2 km/h 22.5 mph /  36.2 km/h 83 % 0.0 in /  0 mm
09:54 -2.4 °F /  -19.1 °C -5.1 °F /  -20.6 °C 1015.8 in /  34395 hPa ESE 17.7 mph /  28.5 km/h 17.7 mph /  28.5 km/h 82 % 0.0 in /  0 mm
09:59 -2.3 °F /  -19.1 °C -4.9 °F /  -20.5 °C 1015.8 in /  34395 hPa East 14.8 mph /  23.8 km/h 14.8 mph /  23.8 km/h 82 % 0.0 in /  0 mm
10:04 -2.2 °F /  -19 °C -4.8 °F /  -20.4 °C 1015.8 in /  34395 hPa SE 20.9 mph /  33.6 km/h 20.9 mph /  33.6 km/h 82 % 0.0 in /  0 mm
10:09 -2.1 °F /  -18.9 °C -4.7 °F /  -20.4 °C 1015.8 in /  34395 hPa SE 20.4 mph /  32.8 km/h 20.4 mph /  32.8 km/h 82 % 0.0 in /  0 mm
10:14 -1.9 °F /  -18.8 °C -4.6 °F /  -20.3 °C 1015.8 in /  34395 hPa ESE 17.7 mph /  28.5 km/h 17.7 mph /  28.5 km/h 82 % 0.0 in /  0 mm
10:19 -1.8 °F /  -18.8 °C -4.6 °F /  -20.3 °C 1015.8 in /  34395 hPa SE 18.5 mph /  29.8 km/h 18.5 mph /  29.8 km/h 81 % 0.0 in /  0 mm
10:24 -1.7 °F /  -18.7 °C -4.5 °F /  -20.3 °C 1015.8 in /  34395 hPa ESE 16.7 mph /  26.9 km/h 16.7 mph /  26.9 km/h 81 % 0.0 in /  0 mm
10:29 -1.6 °F /  -18.7 °C -4.4 °F /  -20.2 °C 1015.8 in /  34395 hPa SE 20.4 mph /  32.8 km/h 20.4 mph /  32.8 km/h 81 % 0.0 in /  0 mm
10:34 -1.4 °F /  -18.6 °C -4.4 °F /  -20.2 °C 1015.8 in /  34395 hPa ESE 22.2 mph /  35.7 km/h 22.2 mph /  35.7 km/h 80 % 0.0 in /  0 mm
10:39 -1.3 °F /  -18.5 °C -4.3 °F /  -20.2 °C 1015.8 in /  34395 hPa ESE 18.5 mph /  29.8 km/h 18.5 mph /  29.8 km/h 80 % 0.0 in /  0 mm
10:44 -1.1 °F /  -18.4 °C -4.1 °F /  -20.1 °C 1015.8 in /  34395 hPa ESE 20.4 mph /  32.8 km/h 20.4 mph /  32.8 km/h 80 % 0.0 in /  0 mm
10:49 -0.9 °F /  -18.3 °C -4.1 °F /  -20.1 °C 1015.8 in /  34395 hPa ESE 18.5 mph /  29.8 km/h 18.5 mph /  29.8 km/h 79 % 0.0 in /  0 mm
10:54 -0.7 °F /  -18.2 °C -3.7 °F /  -19.8 °C 1015.8 in /  34395 hPa ESE 18.5 mph /  29.8 km/h 18.5 mph /  29.8 km/h 80 % 0.0 in /  0 mm
10:59 -0.6 °F /  -18.1 °C -3.8 °F /  -19.9 °C 1015.8 in /  34395 hPa SE 18.5 mph /  29.8 km/h 18.5 mph /  29.8 km/h 79 % 0.0 in /  0 mm
11:04 -0.4 °F /  -18 °C -3.7 °F /  -19.8 °C 1015.8 in /  34395 hPa SE 25.9 mph /  41.7 km/h 25.9 mph /  41.7 km/h 79 % 0.0 in /  0 mm
11:09 -0.4 °F /  -18 °C -3.6 °F /  -19.8 °C 1015.8 in /  34395 hPa ESE 3.7 mph /  6 km/h 3.7 mph /  6 km/h 79 % 0.0 in /  0 mm
11:14 -0.3 °F /  -17.9 °C -3.6 °F /  -19.8 °C 1015.5 in /  34384.8 hPa ESE 22.2 mph /  35.7 km/h 22.2 mph /  35.7 km/h 79 % 0.0 in /  0 mm
11:19 -0.3 °F /  -17.9 °C -3.7 °F /  -19.8 °C 1015.5 in /  34384.8 hPa ESE 20.4 mph /  32.8 km/h 20.4 mph /  32.8 km/h 78 % 0.0 in /  0 mm
11:24 -0.2 °F /  -17.9 °C -3.6 °F /  -19.8 °C 1015.5 in /  34384.8 hPa SE 24.1 mph /  38.8 km/h 24.1 mph /  38.8 km/h 78 % 0.0 in /  0 mm
11:29 -0.1 °F /  -17.8 °C -3.5 °F /  -19.7 °C 1015.5 in /  34384.8 hPa SE 18.5 mph /  29.8 km/h 18.5 mph /  29.8 km/h 78 % 0.0 in /  0 mm
11:34 -0.1 °F /  -17.8 °C -3.4 °F /  -19.7 °C 1015.5 in /  34384.8 hPa SE 16.7 mph /  26.9 km/h 16.7 mph /  26.9 km/h 78 % 0.0 in /  0 mm
11:39 0.1 °F /  -17.7 °C -3.5 °F /  -19.7 °C 1015.5 in /  34384.8 hPa ESE 20.4 mph /  32.8 km/h 20.4 mph /  32.8 km/h 77 % 0.0 in /  0 mm
11:44 0.2 °F /  -17.7 °C -3.6 °F /  -19.8 °C 1015.5 in /  34384.8 hPa ESE 18.5 mph /  29.8 km/h 18.5 mph /  29.8 km/h 76 % 0.0 in /  0 mm
11:49 0.2 °F /  -17.7 °C -3.3 °F /  -19.6 °C 1015.5 in /  34384.8 hPa ESE 18.5 mph /  29.8 km/h 18.5 mph /  29.8 km/h 77 % 0.0 in /  0 mm
11:54 0.3 °F /  -17.6 °C -3.4 °F /  -19.7 °C 1015.5 in /  34384.8 hPa SSE 16.7 mph /  26.9 km/h 16.7 mph /  26.9 km/h 76 % 0.0 in /  0 mm
11:59 0.3 °F /  -17.6 °C -3.4 °F /  -19.7 °C 1015.5 in /  34384.8 hPa SE 20.4 mph /  32.8 km/h 20.4 mph /  32.8 km/h 76 % 0.0 in /  0 mm
12:04 0.4 °F /  -17.6 °C -3.6 °F /  -19.8 °C 1015.5 in /  34384.8 hPa ESE 22.5 mph /  36.2 km/h 22.5 mph /  36.2 km/h 75 % 0.0 in /  0 mm
12:09 0.4 °F /  -17.6 °C -3.6 °F /  -19.8 °C 1015.5 in /  34384.8 hPa East 20.4 mph /  32.8 km/h 20.4 mph /  32.8 km/h 75 % 0.0 in /  0 mm
12:14 0.5 °F /  -17.5 °C -3.4 °F /  -19.7 °C 1015.5 in /  34384.8 hPa SE 24.1 mph /  38.8 km/h 24.1 mph /  38.8 km/h 75 % 0.0 in /  0 mm
12:19 0.6 °F /  -17.4 °C -3.6 °F /  -19.8 °C 1015.5 in /  34384.8 hPa ESE 18.5 mph /  29.8 km/h 18.5 mph /  29.8 km/h 74 % 0.0 in /  0 mm
12:24 0.6 °F /  -17.4 °C -3.6 °F /  -19.8 °C 1015.5 in /  34384.8 hPa ESE 16.7 mph /  26.9 km/h 16.7 mph /  26.9 km/h 74 % 0.0 in /  0 mm
12:29 0.7 °F /  -17.4 °C -3.2 °F /  -19.6 °C 1015.1 in /  34371.3 hPa SE 20.4 mph /  32.8 km/h 20.4 mph /  32.8 km/h 75 % 0.0 in /  0 mm
12:34 0.8 °F /  -17.3 °C -3.3 °F /  -19.6 °C 1015.1 in /  34371.3 hPa ESE 20.4 mph /  32.8 km/h 20.4 mph /  32.8 km/h 74 % 0.0 in /  0 mm
12:39 0.8 °F /  -17.3 °C -3.4 °F /  -19.7 °C 1015.1 in /  34371.3 hPa ESE 20.4 mph /  32.8 km/h 20.4 mph /  32.8 km/h 73 % 0.0 in /  0 mm
12:44 0.9 °F /  -17.3 °C -3.2 °F /  -19.6 °C 1015.1 in /  34371.3 hPa SSE 3.7 mph /  6 km/h 3.7 mph /  6 km/h 74 % 0.0 in /  0 mm
12:49 1.0 °F /  -17.2 °C -3.1 °F /  -19.5 °C 1015.1 in /  34371.3 hPa SE 19.3 mph /  31.1 km/h 19.3 mph /  31.1 km/h 74 % 0.0 in /  0 mm
12:54 1.1 °F /  -17.2 °C -3.2 °F /  -19.6 °C 1015.1 in /  34371.3 hPa SE 11.3 mph /  18.2 km/h 11.3 mph /  18.2 km/h 73 % 0.0 in /  0 mm
12:59 1.0 °F /  -17.2 °C -3.5 °F /  -19.7 °C 1015.1 in /  34371.3 hPa ESE 29.6 mph /  47.6 km/h 29.6 mph /  47.6 km/h 72 % 0.0 in /  0 mm
13:04 0.9 °F /  -17.3 °C -3.6 °F /  -19.8 °C 1014.8 in /  34361.1 hPa ESE 20.9 mph /  33.6 km/h 20.9 mph /  33.6 km/h 72 % 0.0 in /  0 mm
13:09 0.9 °F /  -17.3 °C -3.6 °F /  -19.8 °C 1015.1 in /  34371.3 hPa SSE 18.5 mph /  29.8 km/h 18.5 mph /  29.8 km/h 72 % 0.0 in /  0 mm
13:14 0.9 °F /  -17.3 °C -3.6 °F /  -19.8 °C 1014.8 in /  34361.1 hPa SE 31.5 mph /  50.7 km/h 31.5 mph /  50.7 km/h 72 % 0.0 in /  0 mm
13:19 0.9 °F /  -17.3 °C -3.3 °F /  -19.6 °C 1014.8 in /  34361.1 hPa SSE 20.4 mph /  32.8 km/h 20.4 mph /  32.8 km/h 73 % 0.0 in /  0 mm
13:24 1.0 °F /  -17.2 °C -3.3 °F /  -19.6 °C 1014.8 in /  34361.1 hPa ESE 22.2 mph /  35.7 km/h 22.2 mph /  35.7 km/h 73 % 0.0 in /  0 mm
13:29 0.9 °F /  -17.3 °C -3.4 °F /  -19.7 °C 1014.8 in /  34361.1 hPa ESE 18.5 mph /  29.8 km/h 18.5 mph /  29.8 km/h 73 % 0.0 in /  0 mm
13:34 0.9 °F /  -17.3 °C -3.4 °F /  -19.7 °C 1014.8 in /  34361.1 hPa ESE 18.5 mph /  29.8 km/h 18.5 mph /  29.8 km/h 73 % 0.0 in /  0 mm
13:39 0.9 °F /  -17.3 °C -3.3 °F /  -19.6 °C 1014.8 in /  34361.1 hPa ESE 19.3 mph /  31.1 km/h 19.3 mph /  31.1 km/h 73 % 0.0 in /  0 mm
13:44 0.9 °F /  -17.3 °C -3.3 °F /  -19.6 °C 1014.8 in /  34361.1 hPa SE 22.5 mph /  36.2 km/h 22.5 mph /  36.2 km/h 73 % 0.0 in /  0 mm
13:49 0.9 °F /  -17.3 °C -3.4 °F /  -19.7 °C 1014.8 in /  34361.1 hPa SE 11.1 mph /  17.9 km/h 11.1 mph /  17.9 km/h 73 % 0.0 in /  0 mm
13:54 0.9 °F /  -17.3 °C -3.3 °F /  -19.6 °C 1014.8 in /  34361.1 hPa SE 18.5 mph /  29.8 km/h 18.5 mph /  29.8 km/h 73 % 0.0 in /  0 mm
13:59 0.9 °F /  -17.3 °C -3.4 °F /  -19.7 °C 1014.8 in /  34361.1 hPa SE 20.4 mph /  32.8 km/h 20.4 mph /  32.8 km/h 73 % 0.0 in /  0 mm
14:04 0.9 °F /  -17.3 °C -3.3 °F /  -19.6 °C 1014.8 in /  34361.1 hPa ESE 19.3 mph /  31.1 km/h 19.3 mph /  31.1 km/h 73 % 0.0 in /  0 mm
14:09 1.1 °F /  -17.2 °C -3.2 °F /  -19.6 °C 1014.8 in /  34361.1 hPa ESE 29.6 mph /  47.6 km/h 29.6 mph /  47.6 km/h 73 % 0.0 in /  0 mm
14:14 1.1 °F /  -17.2 °C -3.4 °F /  -19.7 °C 1014.4 in /  34347.6 hPa ESE 24.1 mph /  38.8 km/h 24.1 mph /  38.8 km/h 72 % 0.0 in /  0 mm
14:19 1.1 °F /  -17.2 °C -3.4 °F /  -19.7 °C 1014.8 in /  34361.1 hPa SE 20.4 mph /  32.8 km/h 20.4 mph /  32.8 km/h 72 % 0.0 in /  0 mm
14:24 1.2 °F /  -17.1 °C -3.2 °F /  -19.6 °C 1014.4 in /  34347.6 hPa East 13.0 mph /  20.9 km/h 13.0 mph /  20.9 km/h 73 % 0.0 in /  0 mm
14:29 1.3 °F /  -17.1 °C -3.2 °F /  -19.6 °C 1014.8 in /  34361.1 hPa ESE 16.1 mph /  25.9 km/h 16.1 mph /  25.9 km/h 72 % 0.0 in /  0 mm
14:34 1.4 °F /  -17 °C -3.1 °F /  -19.5 °C 1014.8 in /  34361.1 hPa SE 20.4 mph /  32.8 km/h 20.4 mph /  32.8 km/h 72 % 0.0 in /  0 mm
14:39 1.3 °F /  -17.1 °C -3.2 °F /  -19.6 °C 1014.8 in /  34361.1 hPa South 20.4 mph /  32.8 km/h 20.4 mph /  32.8 km/h 72 % 0.0 in /  0 mm
14:44 1.2 °F /  -17.1 °C -3.1 °F /  -19.5 °C 1014.8 in /  34361.1 hPa SE 18.5 mph /  29.8 km/h 18.5 mph /  29.8 km/h 73 % 0.0 in /  0 mm
14:49 1.2 °F /  -17.1 °C -3.1 °F /  -19.5 °C 1014.8 in /  34361.1 hPa SE 3.7 mph /  6 km/h 3.7 mph /  6 km/h 73 % 0.0 in /  0 mm
14:54 1.2 °F /  -17.1 °C -3.1 °F /  -19.5 °C 1014.8 in /  34361.1 hPa SE 20.9 mph /  33.6 km/h 20.9 mph /  33.6 km/h 73 % 0.0 in /  0 mm
14:59 1.1 °F /  -17.2 °C -3.2 °F /  -19.6 °C 1014.8 in /  34361.1 hPa ENE 11.1 mph /  17.9 km/h 11.1 mph /  17.9 km/h 73 % 0.0 in /  0 mm
15:04 1.0 °F /  -17.2 °C -3.3 °F /  -19.6 °C 1014.8 in /  34361.1 hPa SE 17.7 mph /  28.5 km/h 17.7 mph /  28.5 km/h 73 % 0.0 in /  0 mm
15:09 0.9 °F /  -17.3 °C -3.3 °F /  -19.6 °C 1014.8 in /  34361.1 hPa ESE 16.7 mph /  26.9 km/h 16.7 mph /  26.9 km/h 73 % 0.0 in /  0 mm
15:14 0.8 °F /  -17.3 °C -3.4 °F /  -19.7 °C 1014.8 in /  34361.1 hPa ESE 14.5 mph /  23.3 km/h 14.5 mph /  23.3 km/h 73 % 0.0 in /  0 mm
15:19 0.7 °F /  -17.4 °C -3.4 °F /  -19.7 °C 1014.8 in /  34361.1 hPa SSE 18.5 mph /  29.8 km/h 18.5 mph /  29.8 km/h 74 % 0.0 in /  0 mm
15:24 0.6 °F /  -17.4 °C -3.5 °F /  -19.7 °C 1014.8 in /  34361.1 hPa SE 3.7 mph /  6 km/h 3.7 mph /  6 km/h 74 % 0.0 in /  0 mm
15:29 0.5 °F /  -17.5 °C -3.4 °F /  -19.7 °C 1014.8 in /  34361.1 hPa SE 3.2 mph /  5.1 km/h 3.2 mph /  5.1 km/h 75 % 0.0 in /  0 mm
15:34 0.4 °F /  -17.6 °C -3.3 °F /  -19.6 °C 1014.8 in /  34361.1 hPa East 14.8 mph /  23.8 km/h 14.8 mph /  23.8 km/h 76 % 0.0 in /  0 mm
15:39 0.3 °F /  -17.6 °C -3.4 °F /  -19.7 °C 1014.4 in /  34347.6 hPa ESE 9.3 mph /  15 km/h 9.3 mph /  15 km/h 76 % 0.0 in /  0 mm
15:44 0.2 °F /  -17.7 °C -3.3 °F /  -19.6 °C 1014.4 in /  34347.6 hPa ESE 11.1 mph /  17.9 km/h 11.1 mph /  17.9 km/h 77 % 0.0 in /  0 mm
15:49 0.1 °F /  -17.7 °C -3.5 °F /  -19.7 °C 1014.4 in /  34347.6 hPa East 9.3 mph /  15 km/h 9.3 mph /  15 km/h 77 % 0.0 in /  0 mm
15:54 -0.1 °F /  -17.8 °C -3.6 °F /  -19.8 °C 1014.8 in /  34361.1 hPa ENE 14.8 mph /  23.8 km/h 14.8 mph /  23.8 km/h 77 % 0.0 in /  0 mm
15:59 -0.2 °F /  -17.9 °C -3.7 °F /  -19.8 °C 1014.8 in /  34361.1 hPa ESE 3.7 mph /  6 km/h 3.7 mph /  6 km/h 77 % 0.0 in /  0 mm
16:04 -0.3 °F /  -17.9 °C -3.7 °F /  -19.8 °C 1014.4 in /  34347.6 hPa East 17.7 mph /  28.5 km/h 17.7 mph /  28.5 km/h 78 % 0.0 in /  0 mm
16:09 -0.4 °F /  -18 °C -3.8 °F /  -19.9 °C 1014.8 in /  34361.1 hPa East 18.5 mph /  29.8 km/h 18.5 mph /  29.8 km/h 78 % 0.0 in /  0 mm
16:14 -0.5 °F /  -18.1 °C -3.9 °F /  -19.9 °C 1014.8 in /  34361.1 hPa ESE 14.8 mph /  23.8 km/h 14.8 mph /  23.8 km/h 78 % 0.0 in /  0 mm
16:19 -0.6 °F /  -18.1 °C -3.9 °F /  -19.9 °C 1014.8 in /  34361.1 hPa ESE 3.7 mph /  6 km/h 3.7 mph /  6 km/h 78 % 0.0 in /  0 mm
16:24 -0.7 °F /  -18.2 °C -4.1 °F /  -20.1 °C 1014.8 in /  34361.1 hPa ESE 3.7 mph /  6 km/h 3.7 mph /  6 km/h 78 % 0.0 in /  0 mm
16:29 -0.8 °F /  -18.2 °C -3.9 °F /  -19.9 °C 1014.8 in /  34361.1 hPa SE 3.7 mph /  6 km/h 3.7 mph /  6 km/h 79 % 0.0 in /  0 mm
16:34 -0.8 °F /  -18.2 °C -4.0 °F /  -20 °C 1014.8 in /  34361.1 hPa ESE 1.9 mph /  3.1 km/h 1.9 mph /  3.1 km/h 79 % 0.0 in /  0 mm
16:39 -0.9 °F /  -18.3 °C -3.9 °F /  -19.9 °C 1014.8 in /  34361.1 hPa East 1.9 mph /  3.1 km/h 1.9 mph /  3.1 km/h 80 % 0.0 in /  0 mm
16:44 -1.0 °F /  -18.3 °C -4.0 °F /  -20 °C 1014.4 in /  34347.6 hPa East 1.9 mph /  3.1 km/h 1.9 mph /  3.1 km/h 80 % 0.0 in /  0 mm
16:49 -1.1 °F /  -18.4 °C -3.9 °F /  -19.9 °C 1014.8 in /  34361.1 hPa ESE 3.7 mph /  6 km/h 3.7 mph /  6 km/h 81 % 0.0 in /  0 mm
16:54 -1.2 °F /  -18.4 °C -3.8 °F /  -19.9 °C 1014.4 in /  34347.6 hPa ESE 14.8 mph /  23.8 km/h 14.8 mph /  23.8 km/h 82 % 0.0 in /  0 mm
16:59 -1.2 °F /  -18.4 °C -3.9 °F /  -19.9 °C 1014.4 in /  34347.6 hPa ESE 1.9 mph /  3.1 km/h 1.9 mph /  3.1 km/h 82 % 0.0 in /  0 mm
17:04 -1.3 °F /  -18.5 °C -3.9 °F /  -19.9 °C 1014.4 in /  34347.6 hPa ESE 3.7 mph /  6 km/h 3.7 mph /  6 km/h 82 % 0.0 in /  0 mm
17:09 -1.4 °F /  -18.6 °C -4.1 °F /  -20.1 °C 1014.4 in /  34347.6 hPa East 18.5 mph /  29.8 km/h 18.5 mph /  29.8 km/h 82 % 0.0 in /  0 mm
17:14 -1.4 °F /  -18.6 °C -4.1 °F /  -20.1 °C 1014.4 in /  34347.6 hPa ESE 16.7 mph /  26.9 km/h 16.7 mph /  26.9 km/h 82 % 0.0 in /  0 mm
17:19 -1.5 °F /  -18.6 °C -4.2 °F /  -20.1 °C 1014.4 in /  34347.6 hPa ESE 16.7 mph /  26.9 km/h 16.7 mph /  26.9 km/h 82 % 0.0 in /  0 mm
17:24 -1.6 °F /  -18.7 °C -4.1 °F /  -20.1 °C 1014.4 in /  34347.6 hPa ESE 14.5 mph /  23.3 km/h 14.5 mph /  23.3 km/h 83 % 0.0 in /  0 mm
17:29 -1.6 °F /  -18.7 °C -4.1 °F /  -20.1 °C 1014.4 in /  34347.6 hPa East 14.8 mph /  23.8 km/h 14.8 mph /  23.8 km/h 83 % 0.0 in /  0 mm
17:34 -1.7 °F /  -18.7 °C -4.2 °F /  -20.1 °C 1014.4 in /  34347.6 hPa ESE 11.1 mph /  17.9 km/h 11.1 mph /  17.9 km/h 83 % 0.0 in /  0 mm
17:39 -1.8 °F /  -18.8 °C -4.3 °F /  -20.2 °C 1014.4 in /  34347.6 hPa East 9.3 mph /  15 km/h 9.3 mph /  15 km/h 83 % 0.0 in /  0 mm
17:44 -1.8 °F /  -18.8 °C -4.2 °F /  -20.1 °C 1014.8 in /  34361.1 hPa East 11.1 mph /  17.9 km/h 11.1 mph /  17.9 km/h 84 % 0.0 in /  0 mm
17:49 -1.9 °F /  -18.8 °C -4.3 °F /  -20.2 °C 1014.8 in /  34361.1 hPa ESE 9.3 mph /  15 km/h 9.3 mph /  15 km/h 84 % 0.0 in /  0 mm
17:54 -2.1 °F /  -18.9 °C -4.4 °F /  -20.2 °C 1014.8 in /  34361.1 hPa East 8.0 mph /  12.9 km/h 8.0 mph /  12.9 km/h 84 % 0.0 in /  0 mm
17:59 -2.1 °F /  -18.9 °C -4.3 °F /  -20.2 °C 1014.8 in /  34361.1 hPa East 11.1 mph /  17.9 km/h 11.1 mph /  17.9 km/h 85 % 0.0 in /  0 mm
18:04 -2.2 °F /  -19 °C -4.4 °F /  -20.2 °C 1014.8 in /  34361.1 hPa East 11.1 mph /  17.9 km/h 11.1 mph /  17.9 km/h 85 % 0.0 in /  0 mm
18:09 -2.3 °F /  -19.1 °C -4.4 °F /  -20.2 °C 1014.8 in /  34361.1 hPa East 11.1 mph /  17.9 km/h 11.1 mph /  17.9 km/h 85 % 0.0 in /  0 mm
18:14 -2.3 °F /  -19.1 °C -4.5 °F /  -20.3 °C 1014.8 in /  34361.1 hPa ESE 14.5 mph /  23.3 km/h 14.5 mph /  23.3 km/h 85 % 0.0 in /  0 mm
18:19 -2.3 °F /  -19.1 °C -4.3 °F /  -20.2 °C 1014.8 in /  34361.1 hPa ESE 11.3 mph /  18.2 km/h 11.3 mph /  18.2 km/h 86 % 0.0 in /  0 mm
18:24 -2.4 °F /  -19.1 °C -4.4 °F /  -20.2 °C 1014.8 in /  34361.1 hPa ESE 14.8 mph /  23.8 km/h 14.8 mph /  23.8 km/h 86 % 0.0 in /  0 mm
18:29 -2.4 °F /  -19.1 °C -4.4 °F /  -20.2 °C 1014.8 in /  34361.1 hPa ESE 9.7 mph /  15.6 km/h 9.7 mph /  15.6 km/h 86 % 0.0 in /  0 mm
18:34 -2.4 °F /  -19.1 °C -4.4 °F /  -20.2 °C 1014.8 in /  34361.1 hPa ESE 16.7 mph /  26.9 km/h 16.7 mph /  26.9 km/h 86 % 0.0 in /  0 mm
18:39 -2.4 °F /  -19.1 °C -4.4 °F /  -20.2 °C 1014.8 in /  34361.1 hPa ESE 9.3 mph /  15 km/h 9.3 mph /  15 km/h 86 % 0.0 in /  0 mm
18:44 -2.4 °F /  -19.1 °C -4.4 °F /  -20.2 °C 1014.8 in /  34361.1 hPa SE 9.7 mph /  15.6 km/h 9.7 mph /  15.6 km/h 86 % 0.0 in /  0 mm
18:49 -2.4 °F /  -19.1 °C -4.4 °F /  -20.2 °C 1014.8 in /  34361.1 hPa ESE 12.9 mph /  20.8 km/h 12.9 mph /  20.8 km/h 86 % 0.0 in /  0 mm
18:54 -2.4 °F /  -19.1 °C -4.4 °F /  -20.2 °C 1014.8 in /  34361.1 hPa ESE 14.8 mph /  23.8 km/h 14.8 mph /  23.8 km/h 86 % 0.0 in /  0 mm
18:59 -2.4 °F /  -19.1 °C -4.4 °F /  -20.2 °C 1014.8 in /  34361.1 hPa ESE 14.8 mph /  23.8 km/h 14.8 mph /  23.8 km/h 86 % 0.0 in /  0 mm
19:04 -2.4 °F /  -19.1 °C -4.4 °F /  -20.2 °C 1014.8 in /  34361.1 hPa ESE 14.8 mph /  23.8 km/h 14.8 mph /  23.8 km/h 86 % 0.0 in /  0 mm
19:09 -2.4 °F /  -19.1 °C -4.4 °F /  -20.2 °C 1014.8 in /  34361.1 hPa ESE 11.1 mph /  17.9 km/h 11.1 mph /  17.9 km/h 86 % 0.0 in /  0 mm
19:14 -2.5 °F /  -19.2 °C -4.5 °F /  -20.3 °C 1014.8 in /  34361.1 hPa SE 7.4 mph /  11.9 km/h 7.4 mph /  11.9 km/h 86 % 0.0 in /  0 mm
19:19 -2.5 °F /  -19.2 °C -4.5 °F /  -20.3 °C 1015.1 in /  34371.3 hPa ESE 13.0 mph /  20.9 km/h 13.0 mph /  20.9 km/h 86 % 0.0 in /  0 mm
19:24 -2.6 °F /  -19.2 °C -4.6 °F /  -20.3 °C 1014.8 in /  34361.1 hPa ESE 14.8 mph /  23.8 km/h 14.8 mph /  23.8 km/h 86 % 0.0 in /  0 mm
19:29 -2.6 °F /  -19.2 °C -4.4 °F /  -20.2 °C 1014.8 in /  34361.1 hPa ESE 13.0 mph /  20.9 km/h 13.0 mph /  20.9 km/h 87 % 0.0 in /  0 mm
19:34 -2.6 °F /  -19.2 °C -4.5 °F /  -20.3 °C 1014.8 in /  34361.1 hPa ESE 14.8 mph /  23.8 km/h 14.8 mph /  23.8 km/h 87 % 0.0 in /  0 mm
19:39 -2.6 °F /  -19.2 °C -4.5 °F /  -20.3 °C 1015.1 in /  34371.3 hPa ESE 16.7 mph /  26.9 km/h 16.7 mph /  26.9 km/h 87 % 0.0 in /  0 mm
19:44 -2.6 °F /  -19.2 °C -4.4 °F /  -20.2 °C 1015.1 in /  34371.3 hPa SE 18.5 mph /  29.8 km/h 18.5 mph /  29.8 km/h 87 % 0.0 in /  0 mm
19:49 -2.6 °F /  -19.2 °C -4.4 °F /  -20.2 °C 1015.1 in /  34371.3 hPa SE 9.3 mph /  15 km/h 9.3 mph /  15 km/h 87 % 0.0 in /  0 mm
19:54 -2.6 °F /  -19.2 °C -4.5 °F /  -20.3 °C 1015.1 in /  34371.3 hPa ESE 7.4 mph /  11.9 km/h 7.4 mph /  11.9 km/h 87 % 0.0 in /  0 mm
19:59 -2.7 °F /  -19.3 °C -4.6 °F /  -20.3 °C 1015.1 in /  34371.3 hPa ESE 8.0 mph /  12.9 km/h 8.0 mph /  12.9 km/h 87 % 0.0 in /  0 mm
20:04 -2.7 °F /  -19.3 °C -4.6 °F /  -20.3 °C 1015.1 in /  34371.3 hPa SE 9.7 mph /  15.6 km/h 9.7 mph /  15.6 km/h 87 % 0.0 in /  0 mm
20:09 -2.8 °F /  -19.3 °C -4.7 °F /  -20.4 °C 1015.1 in /  34371.3 hPa ESE 11.1 mph /  17.9 km/h 11.1 mph /  17.9 km/h 87 % 0.0 in /  0 mm
20:14 -2.8 °F /  -19.3 °C -4.7 °F /  -20.4 °C 1015.1 in /  34371.3 hPa SE 14.8 mph /  23.8 km/h 14.8 mph /  23.8 km/h 87 % 0.0 in /  0 mm
20:19 -2.9 °F /  -19.4 °C -4.8 °F /  -20.4 °C 1015.1 in /  34371.3 hPa East 5.6 mph /  9 km/h 5.6 mph /  9 km/h 87 % 0.0 in /  0 mm
20:24 -2.9 °F /  -19.4 °C -4.7 °F /  -20.4 °C 1015.1 in /  34371.3 hPa ESE 7.4 mph /  11.9 km/h 7.4 mph /  11.9 km/h 88 % 0.0 in /  0 mm
20:29 -3.0 °F /  -19.4 °C -4.8 °F /  -20.4 °C 1015.1 in /  34371.3 hPa ESE 5.6 mph /  9 km/h 5.6 mph /  9 km/h 87 % 0.0 in /  0 mm
20:34 -3.1 °F /  -19.5 °C -4.8 °F /  -20.4 °C 1015.1 in /  34371.3 hPa ESE 7.4 mph /  11.9 km/h 7.4 mph /  11.9 km/h 88 % 0.0 in /  0 mm
20:39 -3.1 °F /  -19.5 °C -4.8 °F /  -20.4 °C 1015.1 in /  34371.3 hPa ESE 5.6 mph /  9 km/h 5.6 mph /  9 km/h 88 % 0.0 in /  0 mm
20:44 -3.2 °F /  -19.6 °C -4.9 °F /  -20.5 °C 1015.1 in /  34371.3 hPa ESE 9.3 mph /  15 km/h 9.3 mph /  15 km/h 88 % 0.0 in /  0 mm
20:49 -3.2 °F /  -19.6 °C -4.9 °F /  -20.5 °C 1015.1 in /  34371.3 hPa ESE 16.7 mph /  26.9 km/h 16.7 mph /  26.9 km/h 88 % 0.0 in /  0 mm
20:54 -3.2 °F /  -19.6 °C -4.8 °F /  -20.4 °C 1015.1 in /  34371.3 hPa ESE 11.1 mph /  17.9 km/h 11.1 mph /  17.9 km/h 89 % 0.0 in /  0 mm
20:59 -3.2 °F /  -19.6 °C -4.8 °F /  -20.4 °C 1015.1 in /  34371.3 hPa SE 7.4 mph /  11.9 km/h 7.4 mph /  11.9 km/h 89 % 0.0 in /  0 mm
21:04 -3.2 °F /  -19.6 °C -4.7 °F /  -20.4 °C 1015.1 in /  34371.3 hPa ESE 8.0 mph /  12.9 km/h 8.0 mph /  12.9 km/h 89 % 0.0 in /  0 mm
21:09 -3.2 °F /  -19.6 °C -4.7 °F /  -20.4 °C 1015.1 in /  34371.3 hPa ESE 9.3 mph /  15 km/h 9.3 mph /  15 km/h 89 % 0.0 in /  0 mm
21:14 -3.2 °F /  -19.6 °C -4.7 °F /  -20.4 °C 1015.1 in /  34371.3 hPa SE 7.4 mph /  11.9 km/h 7.4 mph /  11.9 km/h 89 % 0.0 in /  0 mm
21:19 -3.2 °F /  -19.6 °C -4.7 °F /  -20.4 °C 1015.1 in /  34371.3 hPa ESE 5.6 mph /  9 km/h 5.6 mph /  9 km/h 89 % 0.0 in /  0 mm
21:24 -3.2 °F /  -19.6 °C -4.7 °F /  -20.4 °C 1015.1 in /  34371.3 hPa ESE 8.0 mph /  12.9 km/h 8.0 mph /  12.9 km/h 89 % 0.0 in /  0 mm
21:29 -3.2 °F /  -19.6 °C -4.9 °F /  -20.5 °C 1015.5 in /  34384.8 hPa ESE 5.6 mph /  9 km/h 5.6 mph /  9 km/h 88 % 0.0 in /  0 mm
21:34 -3.3 °F /  -19.6 °C -5.0 °F /  -20.6 °C 1015.1 in /  34371.3 hPa SE 8.0 mph /  12.9 km/h 8.0 mph /  12.9 km/h 88 % 0.0 in /  0 mm
21:39 -3.3 °F /  -19.6 °C -4.8 °F /  -20.4 °C 1015.5 in /  34384.8 hPa ESE 7.4 mph /  11.9 km/h 7.4 mph /  11.9 km/h 89 % 0.0 in /  0 mm
21:44 -3.3 °F /  -19.6 °C -4.9 °F /  -20.5 °C 1015.5 in /  34384.8 hPa ESE 11.1 mph /  17.9 km/h 11.1 mph /  17.9 km/h 89 % 0.0 in /  0 mm
21:49 -3.3 °F /  -19.6 °C -4.8 °F /  -20.4 °C 1015.5 in /  34384.8 hPa ESE 11.3 mph /  18.2 km/h 11.3 mph /  18.2 km/h 89 % 0.0 in /  0 mm
21:54 -3.2 °F /  -19.6 °C -4.8 °F /  -20.4 °C 1015.5 in /  34384.8 hPa ESE 11.1 mph /  17.9 km/h 11.1 mph /  17.9 km/h 89 % 0.0 in /  0 mm
21:59 -3.2 °F /  -19.6 °C -4.8 °F /  -20.4 °C 1015.5 in /  34384.8 hPa ESE 8.0 mph /  12.9 km/h 8.0 mph /  12.9 km/h 89 % 0.0 in /  0 mm
22:04 -3.2 °F /  -19.6 °C -4.7 °F /  -20.4 °C 1015.1 in /  34371.3 hPa ESE 11.1 mph /  17.9 km/h 11.1 mph /  17.9 km/h 89 % 0.0 in /  0 mm
22:10 -3.1 °F /  -19.5 °C -4.7 °F /  -20.4 °C 1015.1 in /  34371.3 hPa East 11.1 mph /  17.9 km/h 11.1 mph /  17.9 km/h 89 % 0.0 in /  0 mm
22:15 -3.0 °F /  -19.4 °C -4.6 °F /  -20.3 °C 1015.1 in /  34371.3 hPa ESE 16.7 mph /  26.9 km/h 16.7 mph /  26.9 km/h 89 % 0.0 in /  0 mm
22:20 -2.9 °F /  -19.4 °C -4.7 °F /  -20.4 °C 1015.1 in /  34371.3 hPa ESE 9.7 mph /  15.6 km/h 9.7 mph /  15.6 km/h 88 % 0.0 in /  0 mm
22:25 -2.8 °F /  -19.3 °C -4.6 °F /  -20.3 °C 1015.1 in /  34371.3 hPa ESE 8.0 mph /  12.9 km/h 9.7 mph /  15.6 km/h 88 % 0.0 in /  0 mm
22:30 -2.8 °F /  -19.3 °C -4.5 °F /  -20.3 °C 1015.1 in /  34371.3 hPa ESE 9.3 mph /  15 km/h 9.3 mph /  15 km/h 88 % 0.0 in /  0 mm
22:35 -2.7 °F /  -19.3 °C -4.4 °F /  -20.2 °C 1015.1 in /  34371.3 hPa ESE 11.3 mph /  18.2 km/h 11.3 mph /  18.2 km/h 88 % 0.0 in /  0 mm
22:40 -2.7 °F /  -19.3 °C -4.6 °F /  -20.3 °C 1015.1 in /  34371.3 hPa SE 9.3 mph /  15 km/h 9.3 mph /  15 km/h 87 % 0.0 in /  0 mm
22:45 -2.7 °F /  -19.3 °C -4.6 °F /  -20.3 °C 1015.1 in /  34371.3 hPa ESE 8.0 mph /  12.9 km/h 8.0 mph /  12.9 km/h 87 % 0.0 in /  0 mm
22:50 -2.7 °F /  -19.3 °C -4.6 °F /  -20.3 °C 1015.1 in /  34371.3 hPa East 7.4 mph /  11.9 km/h 7.4 mph /  11.9 km/h 87 % 0.0 in /  0 mm
22:55 -2.7 °F /  -19.3 °C -4.6 °F /  -20.3 °C 1015.1 in /  34371.3 hPa ESE 1.6 mph /  2.6 km/h 4.8 mph /  7.7 km/h 87 % 0.0 in /  0 mm
23:00 -2.8 °F /  -19.3 °C -4.7 °F /  -20.4 °C 1015.1 in /  34371.3 hPa ESE 4.8 mph /  7.7 km/h 9.7 mph /  15.6 km/h 87 % 0.0 in /  0 mm
23:05 -2.8 °F /  -19.3 °C -4.7 °F /  -20.4 °C 1015.1 in /  34371.3 hPa ESE 4.8 mph /  7.7 km/h 6.4 mph /  10.3 km/h 87 % 0.0 in /  0 mm
23:10 -2.9 °F /  -19.4 °C -4.8 °F /  -20.4 °C 1015.1 in /  34371.3 hPa ESE 7.4 mph /  11.9 km/h 7.4 mph /  11.9 km/h 87 % 0.0 in /  0 mm
23:15 -2.9 °F /  -19.4 °C -4.8 °F /  -20.4 °C 1015.1 in /  34371.3 hPa ESE 1.6 mph /  2.6 km/h 6.4 mph /  10.3 km/h 87 % 0.0 in /  0 mm
23:20 -2.9 °F /  -19.4 °C -4.7 °F /  -20.4 °C 1015.5 in /  34384.8 hPa ESE 5.6 mph /  9 km/h 5.6 mph /  9 km/h 88 % 0.0 in /  0 mm
23:25 -3.0 °F /  -19.4 °C -4.7 °F /  -20.4 °C 1015.5 in /  34384.8 hPa ESE 6.4 mph /  10.3 km/h 6.4 mph /  10.3 km/h 88 % 0.0 in /  0 mm
23:30 -3.1 °F /  -19.5 °C -4.8 °F /  -20.4 °C 1015.5 in /  34384.8 hPa East 6.4 mph /  10.3 km/h 6.4 mph /  10.3 km/h 88 % 0.0 in /  0 mm
23:35 -3.1 °F /  -19.5 °C -4.8 °F /  -20.4 °C 1015.5 in /  34384.8 hPa ESE 5.6 mph /  9 km/h 5.6 mph /  9 km/h 88 % 0.0 in /  0 mm
23:40 -3.2 °F /  -19.6 °C -4.9 °F /  -20.5 °C 1015.5 in /  34384.8 hPa ESE 5.6 mph /  9 km/h 5.6 mph /  9 km/h 88 % 0.0 in /  0 mm
23:45 -3.2 °F /  -19.6 °C -4.9 °F /  -20.5 °C 1015.5 in /  34384.8 hPa ESE 6.4 mph /  10.3 km/h 6.4 mph /  10.3 km/h 88 % 0.0 in /  0 mm
23:50 -3.3 °F /  -19.6 °C -5.0 °F /  -20.6 °C 1015.5 in /  34384.8 hPa SE 5.6 mph /  9 km/h 5.6 mph /  9 km/h 88 % 0.0 in /  0 mm
23:55 -3.3 °F /  -19.6 °C -5.0 °F /  -20.6 °C 1015.5 in /  34384.8 hPa ESE 5.6 mph /  9 km/h 5.6 mph /  9 km/h 88 % 0.0 in /  0 mm
Vejr3
tilladelse af Weather Underground - 4 mb

script udviklet af  Jim McMurry - jmcmurry@mwt.net tilpasset til dette template  Wim van der Kuil - Leuven-Template.eu

du finder også vores vejrinformationer på:

European Weather Network

Weather Underground

AWEKAS

WeatherlinkIP

Citizen Weather Observer Program (CWOP)

udstyr som vi anvender:

vejrstation
Davis VP2+

vejrprogram
Weather Display

vejrserver
Dell E6400

hjemmeside host
Webhosting.dk

Davis VP2+

Weather Display

Dell E6400

Webhosting.dk